createdAt,value
2019-06-26T00:00:07.368Z,13.55
2019-06-26T00:03:11.571Z,13.35
2019-06-26T00:06:14.795Z,13.25
2019-06-26T00:09:18.435Z,13.93
2019-06-26T00:12:21.799Z,13.72
2019-06-26T00:15:24.890Z,13.60
2019-06-26T00:18:28.258Z,13.58
2019-06-26T00:21:31.595Z,13.68
2019-06-26T00:24:34.651Z,13.20
2019-06-26T00:27:37.903Z,13.83
2019-06-26T00:30:41.450Z,14.25
2019-06-26T00:33:44.646Z,14.05
2019-06-26T00:36:48.795Z,13.88
2019-06-26T00:39:51.966Z,13.72
2019-06-26T00:42:55.051Z,13.93
2019-06-26T00:45:58.281Z,14.43
2019-06-26T00:49:01.443Z,14.13
2019-06-26T00:52:05.803Z,13.30
2019-06-26T00:55:08.858Z,12.75
2019-06-26T00:58:12.127Z,13.45
2019-06-26T01:01:15.479Z,13.30
2019-06-26T01:04:22.911Z,13.55
2019-06-26T01:07:26.088Z,12.58
2019-06-26T01:10:29.131Z,12.58
2019-06-26T01:13:32.430Z,13.55
2019-06-26T01:16:35.763Z,12.88
2019-06-26T01:19:38.926Z,12.93
2019-06-26T01:22:43.142Z,13.00
2019-06-26T01:25:46.339Z,13.53
2019-06-26T01:28:49.535Z,13.70
2019-06-26T01:31:52.659Z,13.78
2019-06-26T01:34:55.927Z,14.18
2019-06-26T01:37:59.032Z,13.32
2019-06-26T01:41:03.811Z,12.45
2019-06-26T01:44:14.767Z,13.43
2019-06-26T01:47:11.983Z,13.90
2019-06-26T01:50:15.280Z,14.13
2019-06-26T01:53:18.271Z,14.50
2019-06-26T01:56:21.498Z,14.20
2019-06-26T01:59:24.671Z,14.60
2019-06-26T02:02:27.757Z,14.95
2019-06-26T02:05:31.034Z,14.03
2019-06-26T02:08:34.254Z,13.22
2019-06-26T02:11:38.580Z,13.72
2019-06-26T02:14:43.532Z,13.68
2019-06-26T02:17:46.599Z,14.15
2019-06-26T02:20:49.688Z,13.60
2019-06-26T02:23:53.076Z,14.55
2019-06-26T02:26:56.411Z,14.07
2019-06-26T02:29:59.435Z,13.58
2019-06-26T02:33:02.591Z,14.60
2019-06-26T02:36:05.865Z,15.35
2019-06-26T02:39:09.167Z,13.72
2019-06-26T02:42:12.376Z,13.38
2019-06-26T02:45:15.659Z,13.98
2019-06-26T02:48:19.047Z,14.10
2019-06-26T02:51:22.351Z,13.90
2019-06-26T02:54:25.456Z,14.98
2019-06-26T02:57:28.544Z,15.80
2019-06-26T03:00:31.741Z,15.50
2019-06-26T03:03:34.934Z,16.15
2019-06-26T03:06:38.049Z,14.87
2019-06-26T03:09:41.323Z,15.72
2019-06-26T03:12:44.638Z,14.55
2019-06-26T03:15:50.538Z,16.05
2019-06-26T03:18:52.752Z,15.32
2019-06-26T03:21:55.975Z,16.20
2019-06-26T03:24:59.147Z,14.93
2019-06-26T03:28:03.393Z,15.15
2019-06-26T03:31:06.657Z,14.60
2019-06-26T03:34:10.109Z,15.70
2019-06-26T03:37:13.188Z,16.10
2019-06-26T03:40:17.291Z,17.40
2019-06-26T03:43:20.392Z,16.25
2019-06-26T03:46:23.659Z,15.83
2019-06-26T03:49:26.987Z,14.60
2019-06-26T03:52:30.292Z,14.98
2019-06-26T03:55:33.354Z,14.75
2019-06-26T03:58:36.577Z,14.68
2019-06-26T04:01:39.720Z,15.03
2019-06-26T04:04:44.573Z,15.08
2019-06-26T04:07:47.706Z,15.55
2019-06-26T04:10:50.854Z,15.48
2019-06-26T04:13:54.183Z,16.17
2019-06-26T04:16:57.347Z,15.25
2019-06-26T04:20:00.438Z,15.72
2019-06-26T04:23:03.570Z,15.68
2019-06-26T04:26:06.625Z,15.68
2019-06-26T04:29:09.856Z,15.68
2019-06-26T04:32:12.949Z,15.75
2019-06-26T04:35:17.819Z,15.63
2019-06-26T04:38:20.970Z,15.45
2019-06-26T04:41:24.138Z,15.83
2019-06-26T04:44:28.846Z,15.70
2019-06-26T04:47:31.898Z,16.82
2019-06-26T04:50:35.158Z,16.27
2019-06-26T04:53:38.382Z,16.23
2019-06-26T04:56:41.618Z,17.60
2019-06-26T04:59:44.846Z,16.15
2019-06-26T05:02:49.431Z,16.20
2019-06-26T05:05:52.694Z,15.53
2019-06-26T05:08:55.866Z,16.23
2019-06-26T05:11:58.957Z,16.70
2019-06-26T05:15:01.746Z,17.20
2019-06-26T05:18:04.724Z,16.42
2019-06-26T05:21:07.623Z,17.15
2019-06-26T05:24:10.435Z,16.73
2019-06-26T05:27:13.186Z,16.40
2019-06-26T05:30:16.716Z,16.95
2019-06-26T05:33:24.834Z,17.12
2019-06-26T05:36:27.636Z,17.62
2019-06-26T05:39:31.488Z,17.00
2019-06-26T05:42:34.379Z,18.40
2019-06-26T05:45:37.149Z,17.45
2019-06-26T05:48:39.895Z,17.75
2019-06-26T05:51:42.774Z,17.15
2019-06-26T05:54:45.559Z,16.50
2019-06-26T05:57:48.665Z,16.17
2019-06-26T06:00:51.578Z,16.50
2019-06-26T06:03:54.323Z,16.17
2019-06-26T06:06:57.074Z,15.23
2019-06-26T06:10:00.964Z,16.00
2019-06-26T06:13:03.822Z,14.53
2019-06-26T06:16:26.139Z,15.55
2019-06-26T06:19:28.914Z,15.78
2019-06-26T06:22:31.683Z,15.80
2019-06-26T06:25:34.462Z,15.00
2019-06-26T06:28:37.270Z,14.87
2019-06-26T06:31:40.039Z,15.48
2019-06-26T06:34:42.823Z,14.50
2019-06-26T06:37:45.603Z,15.45
2019-06-26T06:40:48.351Z,15.13
2019-06-26T06:43:51.174Z,14.23
2019-06-26T06:47:03.225Z,15.05
2019-06-26T06:49:58.490Z,14.70
2019-06-26T06:53:01.311Z,14.05
2019-06-26T06:56:04.353Z,14.15
2019-06-26T06:59:07.222Z,14.65
2019-06-26T07:02:10.030Z,14.05
2019-06-26T07:05:12.882Z,13.43
2019-06-26T07:08:15.750Z,13.62
2019-06-26T07:11:18.603Z,13.75
2019-06-26T07:14:21.468Z,13.95
2019-06-26T07:17:24.272Z,11.70
2019-06-26T07:20:27.188Z,12.33
2019-06-26T07:23:29.916Z,12.43
2019-06-26T07:26:32.662Z,11.30
2019-06-26T07:29:35.456Z,11.28
2019-06-26T07:32:38.239Z,10.95
2019-06-26T07:35:42.243Z,10.18
2019-06-26T07:38:45.040Z,10.93
2019-06-26T07:41:47.906Z,9.53
2019-06-26T07:44:50.683Z,9.60
2019-06-26T07:47:53.459Z,9.80
2019-06-26T07:50:56.446Z,9.33
2019-06-26T07:53:59.327Z,9.43
2019-06-26T07:57:02.091Z,8.45
2019-06-26T08:00:05.867Z,8.23
2019-06-26T08:03:09.157Z,8.35
2019-06-26T08:06:12.001Z,7.15
2019-06-26T08:09:14.732Z,7.40
2019-06-26T08:12:17.506Z,7.20
2019-06-26T08:15:20.390Z,7.62
2019-06-26T08:18:23.143Z,7.10
2019-06-26T08:21:25.936Z,6.65
2019-06-26T08:24:29.799Z,6.40
2019-06-26T08:27:32.577Z,6.95
2019-06-26T08:30:36.469Z,6.47
2019-06-26T08:33:39.361Z,6.47
2019-06-26T08:36:42.103Z,6.60
2019-06-26T08:39:44.888Z,6.80
2019-06-26T08:42:47.750Z,5.58
2019-06-26T08:45:50.511Z,5.12
2019-06-26T08:48:53.300Z,5.67
2019-06-26T08:51:56.378Z,5.12
2019-06-26T08:54:59.131Z,5.50
2019-06-26T08:58:01.988Z,5.17
2019-06-26T09:01:04.857Z,5.30
2019-06-26T09:04:07.744Z,5.17
2019-06-26T09:07:10.630Z,5.08
2019-06-26T09:10:13.805Z,4.80
2019-06-26T09:13:16.622Z,5.03
2019-06-26T09:16:19.347Z,4.90
2019-06-26T09:19:22.136Z,5.00
2019-06-26T09:22:24.907Z,5.40
2019-06-26T09:25:27.775Z,5.03
2019-06-26T09:28:30.503Z,5.28
2019-06-26T09:31:33.360Z,5.30
2019-06-26T09:34:36.147Z,4.67
2019-06-26T09:37:39.362Z,4.35
2019-06-26T09:40:42.187Z,4.30
2019-06-26T09:43:44.977Z,4.25
2019-06-26T09:46:47.949Z,4.35
2019-06-26T09:49:50.809Z,4.35
2019-06-26T09:52:57.399Z,4.40
2019-06-26T09:56:01.803Z,3.47
2019-06-26T09:59:06.082Z,3.60
2019-06-26T10:02:09.604Z,3.30
2019-06-26T10:05:15.779Z,3.42
2019-06-26T10:08:19.444Z,3.90
2019-06-26T10:11:23.468Z,3.33
2019-06-26T10:14:45.505Z,3.30
2019-06-26T10:17:34.434Z,3.50
2019-06-26T10:20:39.022Z,3.30
2019-06-26T10:23:43.323Z,3.17
2019-06-26T10:26:47.667Z,3.50
2019-06-26T10:29:51.164Z,3.12
2019-06-26T10:32:54.506Z,3.02
2019-06-26T10:35:57.722Z,3.30
2019-06-26T10:39:01.283Z,3.00
2019-06-26T10:42:06.582Z,3.60
2019-06-26T10:45:12.189Z,4.00
2019-06-26T10:48:15.818Z,3.35
2019-06-26T10:51:19.233Z,3.25
2019-06-26T10:54:23.280Z,3.83
2019-06-26T10:57:26.958Z,3.50
2019-06-26T11:00:33.399Z,3.30
2019-06-26T11:03:36.829Z,3.02
2019-06-26T11:06:40.528Z,3.35
2019-06-26T11:09:43.491Z,3.62
2019-06-26T11:12:48.931Z,3.40
2019-06-26T11:15:51.074Z,3.40
2019-06-26T11:18:54.930Z,3.80
2019-06-26T11:21:58.602Z,3.80
2019-06-26T11:25:01.733Z,3.55
2019-06-26T11:28:04.600Z,3.42
2019-06-26T11:31:07.451Z,3.80
2019-06-26T11:34:10.367Z,3.60
2019-06-26T11:37:13.094Z,4.10
2019-06-26T11:40:16.466Z,3.85
2019-06-26T11:43:20.340Z,3.90
2019-06-26T11:46:23.183Z,4.10
2019-06-26T11:49:26.003Z,4.28
2019-06-26T11:52:29.219Z,4.10
2019-06-26T11:55:34.018Z,4.78
2019-06-26T11:58:36.899Z,4.70
2019-06-26T12:01:40.036Z,4.53
2019-06-26T12:04:43.258Z,4.62
2019-06-26T12:07:46.092Z,4.47
2019-06-26T12:10:48.875Z,4.62
2019-06-26T12:13:53.641Z,4.55
2019-06-26T12:16:57.447Z,5.10
2019-06-26T12:20:16.959Z,5.53
2019-06-26T12:23:06.945Z,5.03
2019-06-26T12:26:12.447Z,5.10
2019-06-26T12:29:18.859Z,5.17
2019-06-26T12:32:23.358Z,4.90
2019-06-26T12:35:26.175Z,5.15
2019-06-26T12:38:29.634Z,5.45
2019-06-26T12:41:32.816Z,4.20
2019-06-26T12:44:35.970Z,4.87
2019-06-26T12:47:39.016Z,4.97
2019-06-26T12:50:42.110Z,4.53
2019-06-26T12:53:45.042Z,5.17
2019-06-26T12:56:47.874Z,5.12
2019-06-26T12:59:57.291Z,5.37
2019-06-26T13:02:56.458Z,5.17
2019-06-26T13:05:59.340Z,5.40
2019-06-26T13:09:04.359Z,4.92
2019-06-26T13:12:07.363Z,4.58
2019-06-26T13:15:10.383Z,4.65
2019-06-26T13:18:13.155Z,5.03
2019-06-26T13:21:15.958Z,5.17
2019-06-26T13:24:18.779Z,5.40
2019-06-26T13:27:21.503Z,6.03
2019-06-26T13:30:34.530Z,6.58
2019-06-26T13:33:37.442Z,5.85
2019-06-26T13:36:40.339Z,5.40
2019-06-26T13:39:43.203Z,5.70
2019-06-26T13:42:46.060Z,4.72
2019-06-26T13:45:49.387Z,5.65
2019-06-26T13:48:52.985Z,5.22
2019-06-26T13:51:56.393Z,5.85
2019-06-26T13:54:59.769Z,7.03
2019-06-26T13:58:03.300Z,5.40
2019-06-26T14:01:07.477Z,4.95
2019-06-26T14:04:10.770Z,5.20
2019-06-26T14:07:14.247Z,5.95
2019-06-26T14:10:17.742Z,5.85
2019-06-26T14:13:20.877Z,5.42
2019-06-26T14:16:24.071Z,5.22
2019-06-26T14:19:27.389Z,5.20
2019-06-26T14:22:30.535Z,5.40
2019-06-26T14:25:33.966Z,5.47
2019-06-26T14:28:37.286Z,5.25
2019-06-26T14:31:40.135Z,5.70
2019-06-26T14:34:43.328Z,5.78
2019-06-26T14:37:46.546Z,5.10
2019-06-26T14:40:50.687Z,5.03
2019-06-26T14:43:53.746Z,5.83
2019-06-26T14:46:56.843Z,5.15
2019-06-26T14:49:59.837Z,5.58
2019-06-26T14:53:04.672Z,6.12
2019-06-26T14:56:07.815Z,5.40
2019-06-26T14:59:12.567Z,4.60
2019-06-26T15:02:15.689Z,5.40
2019-06-26T15:05:18.986Z,5.30
2019-06-26T15:08:22.079Z,5.60
2019-06-26T15:11:27.273Z,5.78
2019-06-26T15:14:30.407Z,5.47
2019-06-26T15:17:33.511Z,5.67
2019-06-26T15:20:36.803Z,6.03
2019-06-26T15:23:40.819Z,5.50
2019-06-26T15:26:44.007Z,4.97
2019-06-26T15:29:48.747Z,5.08
2019-06-26T15:32:51.948Z,5.10
2019-06-26T15:35:55.131Z,5.33
2019-06-26T15:38:59.242Z,5.83
2019-06-26T15:42:04.251Z,5.30
2019-06-26T15:45:07.668Z,4.95
2019-06-26T15:48:10.783Z,4.97
2019-06-26T15:51:14.023Z,4.80
2019-06-26T15:54:17.171Z,4.90
2019-06-26T15:57:20.396Z,4.25
2019-06-26T16:00:23.768Z,4.60
2019-06-26T16:03:28.151Z,4.37
2019-06-26T16:06:31.415Z,4.90
2019-06-26T16:09:35.598Z,5.45
2019-06-26T16:12:38.681Z,12.33
2019-06-26T16:15:41.724Z,9.88
2019-06-26T16:18:52.544Z,7.92
2019-06-26T16:21:55.811Z,5.60
2019-06-26T16:24:58.960Z,4.00
2019-06-26T16:28:05.693Z,3.58
2019-06-26T16:31:07.092Z,3.70
2019-06-26T16:34:12.208Z,3.55
2019-06-26T16:37:15.347Z,3.30
2019-06-26T16:40:18.532Z,4.10
2019-06-26T16:43:21.639Z,3.33
2019-06-26T16:46:25.006Z,3.83
2019-06-26T16:49:29.223Z,3.20
2019-06-26T16:52:47.829Z,2.95
2019-06-26T16:55:39.201Z,3.37
2019-06-26T16:58:42.232Z,4.08
2019-06-26T17:01:45.300Z,2.72
2019-06-26T17:04:48.591Z,2.40
2019-06-26T17:07:53.608Z,2.60
2019-06-26T17:10:59.998Z,2.37
2019-06-26T17:14:03.323Z,2.65
2019-06-26T17:17:07.271Z,1.82
2019-06-26T17:20:11.288Z,2.52
2019-06-26T17:23:14.374Z,2.20
2019-06-26T17:26:18.580Z,1.92
2019-06-26T17:29:21.650Z,1.85
2019-06-26T17:32:24.889Z,2.37
2019-06-26T17:35:28.039Z,2.47
2019-06-26T17:38:31.494Z,2.90
2019-06-26T17:41:34.843Z,2.92
2019-06-26T17:44:38.183Z,3.00
2019-06-26T17:47:42.383Z,3.10
2019-06-26T17:50:45.657Z,3.02
2019-06-26T17:53:49.598Z,3.50
2019-06-26T17:56:52.670Z,3.20
2019-06-26T17:59:56.063Z,3.20
2019-06-26T18:02:59.387Z,3.25
2019-06-26T18:06:02.759Z,3.80
2019-06-26T18:09:09.958Z,3.17
2019-06-26T18:12:13.448Z,3.77
2019-06-26T18:15:16.667Z,3.75
2019-06-26T18:18:19.769Z,3.22
2019-06-26T18:21:22.935Z,3.20
2019-06-26T18:24:26.335Z,3.47
2019-06-26T18:27:29.637Z,3.40
2019-06-26T18:30:32.967Z,3.87
2019-06-26T18:33:37.358Z,3.90
2019-06-26T18:36:40.655Z,3.30
2019-06-26T18:39:44.039Z,3.62
2019-06-26T18:42:47.177Z,3.67
2019-06-26T18:45:51.837Z,3.42
2019-06-26T18:48:55.082Z,3.17
2019-06-26T18:51:58.263Z,3.80
2019-06-26T18:55:02.702Z,3.70
2019-06-26T18:58:06.031Z,4.17
2019-06-26T19:01:09.286Z,3.72
2019-06-26T19:04:12.583Z,3.02
2019-06-26T19:07:15.672Z,4.05
2019-06-26T19:10:18.975Z,3.67
2019-06-26T19:13:22.067Z,3.95
2019-06-26T19:16:25.359Z,3.98
2019-06-26T19:19:28.683Z,3.77
2019-06-26T19:22:31.994Z,4.05
2019-06-26T19:25:35.314Z,4.22
2019-06-26T19:28:38.403Z,3.92
2019-06-26T19:31:41.452Z,3.80
2019-06-26T19:34:44.563Z,4.03
2019-06-26T19:37:47.981Z,4.08
2019-06-26T19:40:51.304Z,3.70
2019-06-26T19:43:55.892Z,4.60
2019-06-26T19:46:59.667Z,3.85
2019-06-26T19:50:03.754Z,4.03
2019-06-26T19:53:07.658Z,4.15
2019-06-26T19:56:12.759Z,3.95
2019-06-26T19:59:16.674Z,5.05
2019-06-26T20:02:20.072Z,3.92
2019-06-26T20:05:23.935Z,3.50
2019-06-26T20:08:27.915Z,4.00
2019-06-26T20:11:31.587Z,4.00
2019-06-26T20:14:35.589Z,4.30
2019-06-26T20:17:39.254Z,3.58
2019-06-26T20:20:42.974Z,4.10
2019-06-26T20:23:46.650Z,3.72
2019-06-26T20:26:50.319Z,3.50
2019-06-26T20:29:54.098Z,3.72
2019-06-26T20:32:57.800Z,3.72
2019-06-26T20:36:02.679Z,3.45
2019-06-26T20:39:07.861Z,2.95
2019-06-26T20:42:11.672Z,3.47
2019-06-26T20:45:17.828Z,3.45
2019-06-26T20:48:23.051Z,3.37
2019-06-26T20:51:26.723Z,3.25
2019-06-26T20:54:30.198Z,3.40
2019-06-26T20:57:34.190Z,3.15
2019-06-26T21:00:38.310Z,3.45
2019-06-26T21:03:41.938Z,3.47
2019-06-26T21:06:46.941Z,3.98
2019-06-26T21:09:50.879Z,4.22
2019-06-26T21:12:55.143Z,3.98
2019-06-26T21:15:58.362Z,3.60
2019-06-26T21:19:02.368Z,3.58
2019-06-26T21:22:08.894Z,3.85
2019-06-26T21:25:19.173Z,3.52
2019-06-26T21:28:16.078Z,2.75
2019-06-26T21:31:22.191Z,3.15
2019-06-26T21:35:33.152Z,2.67
2019-06-26T21:38:36.685Z,3.00
2019-06-26T21:41:40.503Z,3.05
2019-06-26T21:44:44.233Z,2.60
2019-06-26T21:47:48.101Z,2.12
2019-06-26T21:50:51.883Z,1.87
2019-06-26T21:53:56.600Z,1.95
2019-06-26T21:57:18.995Z,2.45
2019-06-26T22:00:41.438Z,1.90
2019-06-26T22:04:04.220Z,2.10
2019-06-26T22:07:12.284Z,1.80
2019-06-26T22:10:29.778Z,2.05
2019-06-26T22:13:33.735Z,1.85
2019-06-26T22:16:37.323Z,1.85
2019-06-26T22:19:40.843Z,1.70
2019-06-26T22:22:46.421Z,1.80
2019-06-26T22:25:51.257Z,1.80
2019-06-26T22:28:55.255Z,1.50
2019-06-26T22:31:58.936Z,1.60
2019-06-26T22:35:02.347Z,1.52
2019-06-26T22:38:05.844Z,1.62
2019-06-26T22:41:09.899Z,1.60
2019-06-26T22:44:13.252Z,1.60
2019-06-26T22:47:18.279Z,1.35
2019-06-26T22:50:22.640Z,1.50
2019-06-26T22:53:26.013Z,2.08
2019-06-26T22:56:29.203Z,1.75
2019-06-26T22:59:32.536Z,2.20
2019-06-26T23:02:35.523Z,1.80
2019-06-26T23:05:40.399Z,2.85
2019-06-26T23:08:44.948Z,2.25
2019-06-26T23:11:49.763Z,3.20
2019-06-26T23:14:52.686Z,3.15
2019-06-26T23:17:56.124Z,3.00
2019-06-26T23:21:01.150Z,3.20
2019-06-26T23:24:04.288Z,4.17
2019-06-26T23:27:07.438Z,3.80
2019-06-26T23:30:16.529Z,3.80
2019-06-26T23:38:12.110Z,4.75
2019-06-26T23:41:27.449Z,4.53
2019-06-26T23:44:30.742Z,4.67
2019-06-26T23:47:34.561Z,4.60
2019-06-26T23:50:37.825Z,4.70
2019-06-26T23:53:41.053Z,4.65
2019-06-26T23:56:44.370Z,4.92
2019-06-26T23:59:47.646Z,5.10
